Time;durP1;ratioP1;P1;durP2;ratioP2;P2;SDS_P1;SDS_P2;PMS_P1;PMS_P2;Temp;Humidity;BMP_temperature;BMP_pressure;BME280_temperature;BME280_humidity;BME280_pressure;Samples;Min_cycle;Max_cycle;Signal;HPM_P1;HPM_P2
2021/08/17 09:51:02;;;;;;;12.40;7.47;;;;;20.10;101480.00;;;;12908745;22;20170;-77
2021/08/17 09:56:03;;;;;;;14.80;8.18;;;;;19.60;101475.00;;;;12858236;22;20197;-77
2021/08/17 10:01:09;;;;;;;14.55;7.00;;;;;20.10;101474.00;;;;12909360;22;20174;-77
2021/08/17 10:06:11;;;;;;;11.82;7.05;;;;;20.30;101477.00;;;;12886804;22;20178;-77
2021/08/17 10:11:13;;;;;;;9.90;5.55;;;;;19.20;101486.00;;;;12862621;22;20900;-76
2021/08/17 10:16:18;;;;;;;11.30;5.00;;;;;18.30;101476.00;;;;12885977;22;20209;-77
2021/08/17 10:21:20;;;;;;;12.35;5.15;;;;;17.80;101471.00;;;;12874626;22;20174;-77
2021/08/17 10:26:30;;;;;;;9.43;5.32;;;;;17.30;101472.00;;;;12935185;22;20173;-78
2021/08/17 10:31:33;;;;;;;10.65;4.60;;;;;17.00;101458.00;;;;12914217;22;20165;-77
2021/08/17 10:36:42;;;;;;;10.35;5.00;;;;;16.80;101464.00;;;;12887005;22;20193;-77
2021/08/17 10:41:50;;;;;;;7.97;5.10;;;;;16.60;101459.00;;;;12886672;22;20201;-77
2021/08/17 10:46:57;;;;;;;10.83;5.33;;;;;16.60;101446.00;;;;12887213;22;20211;-77
2021/08/17 10:52:05;;;;;;;15.57;5.50;;;;;16.70;101451.00;;;;12886792;22;20232;-78
2021/08/17 10:57:21;;;;;;;8.70;5.60;;;;;16.70;101438.00;;;;12887309;22;20261;-79
2021/08/17 11:02:23;;;;;;;10.77;5.30;;;;;16.60;101432.00;;;;12933739;22;20169;-78
2021/08/17 11:07:32;;;;;;;8.80;5.90;;;;;16.40;101444.00;;;;12864590;22;20169;-78
2021/08/17 11:12:38;;;;;;;13.13;6.17;;;;;16.20;101438.00;;;;12838757;22;20193;-79
2021/08/17 11:17:40;;;;;;;12.77;6.20;;;;;16.10;101437.00;;;;12910198;22;20181;-78
2021/08/17 11:22:41;;;;;;;8.60;5.70;;;;;16.00;101431.00;;;;12910837;22;20185;-79
2021/08/17 11:27:44;;;;;;;17.87;5.90;;;;;16.20;101430.00;;;;12888806;22;20639;-79
2021/08/17 11:32:48;;;;;;;8.33;6.30;;;;;16.40;101424.00;;;;12886420;22;20197;-79
2021/08/17 11:37:52;;;;;;;12.67;7.03;;;;;16.60;101419.00;;;;12836796;22;20174;-79
2021/08/17 11:42:59;;;;;;;11.80;6.70;;;;;16.80;101401.00;;;;12862133;22;20667;-78
2021/08/17 11:48:01;;;;;;;11.68;7.32;;;;;17.40;101404.00;;;;12888043;22;20177;-78
2021/08/17 11:53:03;;;;;;;11.55;6.82;;;;;17.90;101396.00;;;;12884777;22;20716;-78
2021/08/17 11:58:07;;;;;;;12.63;7.78;;;;;17.90;101396.00;;;;12860313;22;20666;-77
2021/08/17 12:03:09;;;;;;;9.50;6.22;;;;;17.90;101406.00;;;;12860787;22;20180;-77
2021/08/17 12:08:11;;;;;;;10.93;5.25;;;;;17.80;101393.00;;;;12887612;22;20169;-77
2021/08/17 12:13:14;;;;;;;7.95;5.15;;;;;17.80;101401.00;;;;12912190;22;20284;-77
2021/08/17 12:18:15;;;;;;;11.60;4.97;;;;;17.70;101402.00;;;;12861998;22;20209;-77
2021/08/17 12:23:23;;;;;;;8.70;5.63;;;;;17.60;101402.00;;;;12889294;22;20223;-77
2021/08/17 12:28:31;;;;;;;8.70;5.13;;;;;17.50;101402.00;;;;12862403;22;20174;-77
2021/08/17 12:33:32;;;;;;;9.18;5.50;;;;;17.30;101398.00;;;;12934505;22;20189;-78
2021/08/17 12:38:40;;;;;;;7.85;5.28;;;;;17.20;101400.00;;;;12889628;22;20228;-78
2021/08/17 12:43:41;;;;;;;7.60;5.53;;;;;17.50;101387.00;;;;12837659;22;20227;-80
2021/08/17 12:48:47;;;;;;;8.80;5.85;;;;;17.30;101377.00;;;;12863307;22;20173;-80
2021/08/17 12:53:50;;;;;;;9.07;5.20;;;;;17.10;101382.00;;;;12863611;22;20676;-81
2021/08/17 12:58:51;;;;;;;9.23;5.80;;;;;17.00;101368.00;;;;12863524;22;20173;-80
2021/08/17 13:03:52;;;;;;;7.73;5.97;;;;;16.90;101360.00;;;;12840114;22;20514;-81
2021/08/17 13:08:54;;;;;;;7.63;6.23;;;;;16.70;101352.00;;;;12837586;22;20169;-82
2021/08/17 13:13:55;;;;;;;11.23;7.03;;;;;16.40;101334.00;;;;12863876;22;20275;-81
2021/08/17 13:18:56;;;;;;;9.47;6.80;;;;;16.20;101325.00;;;;12862120;22;20197;-80
2021/08/17 13:24:00;;;;;;;11.23;7.53;;;;;16.00;101317.00;;;;12838442;22;20256;-82
2021/08/17 13:29:01;;;;;;;12.07;7.63;;;;;15.90;101316.00;;;;12864494;22;20174;-80
2021/08/17 13:34:02;;;;;;;13.33;7.90;;;;;15.70;101306.00;;;;12839807;22;20189;-81
2021/08/17 13:39:04;;;;;;;12.57;8.10;;;;;15.90;101295.00;;;;12865171;22;20501;-80
2021/08/17 13:44:05;;;;;;;13.77;8.90;;;;;16.00;101297.00;;;;12863812;22;20264;-80
2021/08/17 13:49:06;;;;;;;10.23;8.10;;;;;16.00;101290.00;;;;12862143;22;20183;-79
2021/08/17 13:54:08;;;;;;;13.80;8.33;;;;;15.80;101285.00;;;;12862355;22;20197;-79
2021/08/17 13:59:09;;;;;;;12.93;7.73;;;;;15.90;101284.00;;;;12862604;22;20173;-78
2021/08/17 14:04:13;;;;;;;10.60;6.83;;;;;16.00;101278.00;;;;12888301;22;20702;-79
2021/08/17 14:09:15;;;;;;;8.10;6.33;;;;;16.20;101275.00;;;;12839356;22;20169;-79
2021/08/17 14:14:16;;;;;;;8.37;5.70;;;;;16.30;101281.00;;;;12889223;22;20216;-78
2021/08/17 14:19:18;;;;;;;9.67;5.23;;;;;16.30;101275.00;;;;12861966;22;20193;-79
2021/08/17 14:24:19;;;;;;;8.00;5.90;;;;;16.40;101266.00;;;;12837205;22;20181;-79
2021/08/17 14:29:21;;;;;;;7.87;5.90;;;;;16.30;101266.00;;;;12862523;22;20176;-80
2021/08/17 14:34:22;;;;;;;8.40;5.73;;;;;16.30;101274.00;;;;12864492;22;20193;-79
2021/08/17 14:39:24;;;;;;;10.30;6.23;;;;;16.10;101271.00;;;;12862699;22;20174;-78
2021/08/17 14:44:26;;;;;;;9.73;7.57;;;;;15.90;101275.00;;;;12888050;22;20182;-79
2021/08/17 14:49:27;;;;;;;9.73;7.77;;;;;15.70;101265.00;;;;12862392;22;20613;-78
2021/08/17 14:54:29;;;;;;;11.17;8.80;;;;;15.70;101253.00;;;;12883030;22;20189;-79
2021/08/17 14:59:32;;;;;;;13.27;8.90;;;;;15.70;101253.00;;;;12838316;22;20180;-79
2021/08/17 15:04:33;;;;;;;12.83;8.90;;;;;15.70;101246.00;;;;12863279;22;20224;-81
2021/08/17 15:09:38;;;;;;;12.20;9.53;;;;;15.70;101259.00;;;;12912890;22;20189;-80
2021/08/17 15:14:39;;;;;;;12.07;8.17;;;;;15.80;101257.00;;;;12861026;22;20280;-78
2021/08/17 15:19:40;;;;;;;11.40;8.23;;;;;15.50;101264.00;;;;12862144;22;20192;-80
2021/08/17 15:24:42;;;;;;;9.97;7.57;;;;;15.60;101251.00;;;;12837098;22;20169;-78
2021/08/17 15:29:43;;;;;;;9.43;6.93;;;;;15.60;101249.00;;;;12840158;22;20264;-79
2021/08/17 15:34:49;;;;;;;8.37;6.20;;;;;15.60;101246.00;;;;12866265;22;20208;-79
2021/08/17 15:39:51;;;;;;;7.77;6.70;;;;;15.70;101246.00;;;;12935604;22;20165;-79
2021/08/17 15:44:52;;;;;;;8.83;7.20;;;;;15.70;101240.00;;;;12861151;22;20178;-79
2021/08/17 15:49:54;;;;;;;9.43;7.17;;;;;15.70;101238.00;;;;12837768;22;20200;-79
2021/08/17 15:54:55;;;;;;;9.23;7.37;;;;;15.70;101236.00;;;;12864531;22;20194;-79
2021/08/17 15:59:56;;;;;;;9.80;7.90;;;;;15.70;101231.00;;;;12864699;22;20184;-78
2021/08/17 16:04:57;;;;;;;10.47;7.33;;;;;15.70;101230.00;;;;12863153;22;20205;-79
2021/08/17 16:09:58;;;;;;;11.37;7.87;;;;;15.80;101229.00;;;;12835246;22;20175;-79
2021/08/17 16:14:59;;;;;;;9.80;6.83;;;;;15.80;101231.00;;;;12861536;22;20197;-78
2021/08/17 16:20:01;;;;;;;7.63;6.13;;;;;15.80;101227.00;;;;12836818;22;20699;-79
2021/08/17 16:25:05;;;;;;;7.33;5.30;;;;;15.60;101221.00;;;;12887666;22;20180;-78
2021/08/17 16:30:09;;;;;;;7.43;5.30;;;;;15.50;101216.00;;;;12887983;22;20177;-78
2021/08/17 16:35:12;;;;;;;5.67;5.13;;;;;15.50;101214.00;;;;12863527;22;20198;-77
2021/08/17 16:40:13;;;;;;;7.03;5.50;;;;;15.30;101211.00;;;;12861988;22;20166;-78
2021/08/17 16:45:14;;;;;;;8.50;5.77;;;;;15.40;101217.00;;;;12888454;22;20458;-78
2021/08/17 16:50:16;;;;;;;7.20;6.50;;;;;15.30;101215.00;;;;12863560;22;20525;-78
2021/08/17 16:55:18;;;;;;;9.37;6.80;;;;;15.20;101213.00;;;;12862776;22;20201;-78
2021/08/17 17:00:19;;;;;;;10.80;7.33;;;;;15.20;101208.00;;;;12888044;22;20200;-79
2021/08/17 17:05:21;;;;;;;10.77;7.40;;;;;15.20;101217.00;;;;12863556;22;20177;-79
2021/08/17 17:10:22;;;;;;;8.90;6.77;;;;;15.20;101217.00;;;;12862861;22;20177;-78
2021/08/17 17:15:25;;;;;;;11.20;7.63;;;;;15.20;101230.00;;;;12886883;22;20280;-78
2021/08/17 17:20:26;;;;;;;8.80;6.73;;;;;15.20;101221.00;;;;12837394;22;20185;-80
2021/08/17 17:25:28;;;;;;;9.10;6.83;;;;;15.30;101235.00;;;;12839121;22;20177;-79
2021/08/17 17:30:29;;;;;;;8.00;6.83;;;;;15.20;101226.00;;;;12843193;22;20173;-79
2021/08/17 17:35:31;;;;;;;9.27;7.13;;;;;15.20;101218.00;;;;12843615;22;20197;-80
2021/08/17 17:40:32;;;;;;;8.00;7.07;;;;;15.20;101226.00;;;;12843295;22;20169;-79
2021/08/17 17:45:34;;;;;;;9.30;6.30;;;;;15.20;101225.00;;;;12869961;22;20173;-80
2021/08/17 17:50:35;;;;;;;10.07;6.57;;;;;15.20;101224.00;;;;12895333;22;20185;-79
2021/08/17 17:55:36;;;;;;;8.63;7.53;;;;;15.20;101218.00;;;;12915803;22;20215;-79
2021/08/17 18:00:37;;;;;;;11.43;7.60;;;;;15.20;101209.00;;;;12940547;22;20161;-79
2021/08/17 18:05:39;;;;;;;12.90;8.30;;;;;15.10;101211.00;;;;12844600;22;20169;-79
2021/08/17 18:10:42;;;;;;;13.00;9.17;;;;;15.00;101203.00;;;;12869982;22;20169;-79
2021/08/17 18:15:43;;;;;;;13.63;9.63;;;;;15.00;101203.00;;;;12893540;22;20194;-79
2021/08/17 18:20:46;;;;;;;12.17;9.37;;;;;15.00;101212.00;;;;12846083;22;20170;-79
2021/08/17 18:25:47;;;;;;;13.73;10.90;;;;;15.00;101217.00;;;;12869705;22;20178;-79
2021/08/17 18:30:52;;;;;;;14.33;11.30;;;;;15.00;101213.00;;;;12844253;22;20492;-79
2021/08/17 18:35:53;;;;;;;15.10;11.17;;;;;15.00;101214.00;;;;12869107;22;20247;-79
2021/08/17 18:40:54;;;;;;;14.40;11.83;;;;;15.00;101217.00;;;;12844346;22;20174;-80
2021/08/17 18:45:58;;;;;;;14.67;11.77;;;;;14.90;101203.00;;;;12915347;22;20174;-79
2021/08/17 18:51:00;;;;;;;13.10;11.10;;;;;14.90;101208.00;;;;12894906;22;20166;-79
2021/08/17 18:56:03;;;;;;;12.30;10.60;;;;;14.90;101219.00;;;;12868529;22;20221;-79
2021/08/17 19:01:05;;;;;;;12.30;10.67;;;;;14.80;101214.00;;;;12868529;22;20256;-79
2021/08/17 19:06:06;;;;;;;12.60;11.27;;;;;14.80;101216.00;;;;12867488;22;20204;-79
2021/08/17 19:11:08;;;;;;;14.87;11.43;;;;;14.80;101223.00;;;;12868106;22;20170;-79
2021/08/17 19:16:09;;;;;;;15.77;11.57;;;;;14.80;101224.00;;;;12867062;22;20228;-79
2021/08/17 19:21:10;;;;;;;17.57;12.73;;;;;14.80;101230.00;;;;12893496;22;20169;-79
2021/08/17 19:26:12;;;;;;;16.07;12.67;;;;;14.80;101240.00;;;;12893399;22;20613;-79
2021/08/17 19:31:15;;;;;;;16.03;13.07;;;;;14.80;101241.00;;;;12893249;22;20185;-79
2021/08/17 19:36:16;;;;;;;16.70;13.63;;;;;14.90;101236.00;;;;12919509;22;20215;-78
2021/08/17 19:41:18;;;;;;;20.37;14.67;;;;;14.90;101243.00;;;;12843857;22;20181;-79
2021/08/17 19:46:19;;;;;;;17.77;15.03;;;;;14.90;101252.00;;;;12843253;22;20639;-78
2021/08/17 19:51:20;;;;;;;17.30;14.30;;;;;14.90;101248.00;;;;12867295;22;20169;-79
2021/08/17 19:56:21;;;;;;;20.07;15.17;;;;;14.90;101245.00;;;;12892646;22;20205;-79
2021/08/17 20:01:22;;;;;;;19.07;15.20;;;;;14.90;101256.00;;;;12867166;22;20639;-79
2021/08/17 20:06:24;;;;;;;22.67;16.33;;;;;14.90;101251.00;;;;12843601;22;20174;-78
2021/08/17 20:11:27;;;;;;;19.90;15.13;;;;;14.90;101243.00;;;;12867533;22;20232;-78
2021/08/17 20:16:28;;;;;;;25.00;16.60;;;;;14.90;101245.00;;;;12892936;22;20206;-78
2021/08/17 20:21:29;;;;;;;22.63;15.83;;;;;15.00;101246.00;;;;12892731;22;20182;-78
2021/08/17 20:26:33;;;;;;;21.00;15.93;;;;;14.90;101249.00;;;;12893681;22;20854;-78
2021/08/17 20:31:34;;;;;;;23.60;17.17;;;;;14.90;101250.00;;;;12894020;22;20930;-78
2021/08/17 20:36:35;;;;;;;21.87;17.30;;;;;15.00;101249.00;;;;12869754;22;20267;-78
2021/08/17 20:41:37;;;;;;;21.97;17.40;;;;;15.00;101241.00;;;;12894630;22;20632;-78
2021/08/17 20:46:38;;;;;;;23.63;16.90;;;;;15.00;101246.00;;;;12894576;22;20169;-78
2021/08/17 20:51:39;;;;;;;22.63;17.37;;;;;15.00;101244.00;;;;12869744;22;20180;-78
2021/08/17 20:56:41;;;;;;;25.53;19.23;;;;;15.00;101243.00;;;;12919960;22;20681;-78
2021/08/17 21:01:42;;;;;;;22.23;18.83;;;;;15.00;101241.00;;;;12895574;22;20172;-79
2021/08/17 21:06:43;;;;;;;26.00;20.30;;;;;15.00;101235.00;;;;12845456;22;20181;-79
2021/08/17 21:11:45;;;;;;;31.47;21.03;;;;;15.00;101240.00;;;;12894339;22;20223;-79
2021/08/17 21:16:46;;;;;;;29.00;23.60;;;;;15.10;101243.00;;;;12893548;22;20209;-79
2021/08/17 21:21:47;;;;;;;31.43;22.77;;;;;15.10;101238.00;;;;12917176;22;20171;-79
2021/08/17 21:26:49;;;;;;;29.20;22.17;;;;;15.10;101234.00;;;;12916898;22;20200;-79
2021/08/17 21:31:52;;;;;;;31.10;23.27;;;;;15.10;101233.00;;;;12869118;22;20184;-79
2021/08/17 21:36:53;;;;;;;29.43;21.80;;;;;15.10;101236.00;;;;12892396;22;20193;-79
2021/08/17 21:41:54;;;;;;;31.57;24.33;;;;;15.10;101238.00;;;;12892755;23;20177;-79
2021/08/17 21:46:56;;;;;;;32.20;25.07;;;;;15.10;101239.00;;;;12866663;22;20170;-78
2021/08/17 21:51:57;;;;;;;32.03;23.67;;;;;15.10;101245.00;;;;12864940;22;20252;-78
2021/08/17 21:57:02;;;;;;;32.20;24.10;;;;;15.20;101236.00;;;;12841195;22;20648;-79
2021/08/17 22:02:03;;;;;;;32.33;24.57;;;;;15.10;101230.00;;;;12890664;22;20170;-79
2021/08/17 22:07:05;;;;;;;30.87;25.03;;;;;15.10;101232.00;;;;12864652;22;20180;-79
2021/08/17 22:12:07;;;;;;;33.23;25.10;;;;;15.10;101232.00;;;;12936622;22;20166;-79
2021/08/17 22:17:10;;;;;;;39.60;26.67;;;;;15.10;101237.00;;;;12938291;22;20507;-79
2021/08/17 22:22:12;;;;;;;34.90;26.23;;;;;15.10;101234.00;;;;12919020;22;20192;-79
2021/08/17 22:27:13;;;;;;;36.37;27.47;;;;;15.10;101230.00;;;;12868555;22;20201;-78
2021/08/17 22:32:14;;;;;;;35.13;27.90;;;;;15.20;101229.00;;;;12914800;22;20169;-79
2021/08/17 22:37:16;;;;;;;41.67;29.30;;;;;15.20;101231.00;;;;12893486;22;20184;-78
2021/08/17 22:42:17;;;;;;;39.90;28.73;;;;;15.20;101228.00;;;;12868771;22;20177;-78
2021/08/17 22:47:19;;;;;;;39.83;29.63;;;;;15.20;101228.00;;;;12868428;22;20192;-79
2021/08/17 22:52:20;;;;;;;38.23;28.70;;;;;15.20;101235.00;;;;12893223;22;20169;-79
2021/08/17 22:57:21;;;;;;;38.83;29.63;;;;;15.20;101237.00;;;;12894150;22;20613;-78
2021/08/17 23:02:22;;;;;;;38.40;28.77;;;;;15.20;101238.00;;;;12869003;22;20524;-79
2021/08/17 23:07:23;;;;;;;41.83;29.77;;;;;15.30;101237.00;;;;12844547;22;20177;-78
2021/08/17 23:12:25;;;;;;;36.87;27.90;;;;;15.30;101250.00;;;;12915830;22;20189;-79
2021/08/17 23:17:26;;;;;;;37.10;28.50;;;;;15.30;101248.00;;;;12869944;22;20189;-79
2021/08/17 23:22:28;;;;;;;38.03;27.57;;;;;15.30;101251.00;;;;12892669;22;20200;-79
2021/08/17 23:27:30;;;;;;;40.17;27.90;;;;;15.30;101249.00;;;;12893019;22;20212;-79
2021/08/17 23:32:31;;;;;;;33.83;26.90;;;;;15.40;101256.00;;;;12914006;22;20173;-78
2021/08/17 23:37:33;;;;;;;37.80;27.77;;;;;15.40;101242.00;;;;12892921;22;20245;-79
2021/08/17 23:42:34;;;;;;;36.20;24.97;;;;;15.40;101239.00;;;;12867808;22;20177;-79
2021/08/17 23:47:35;;;;;;;32.63;25.10;;;;;15.40;101242.00;;;;12867373;22;20544;-78
2021/08/17 23:52:38;;;;;;;34.00;25.10;;;;;15.40;101234.00;;;;12866878;22;20174;-79
2021/08/17 23:57:39;;;;;;;31.43;24.80;;;;;15.40;101234.00;;;;12866270;22;20177;-79
